createdAt,value
2018-06-09T00:00:20.047Z,18.80
2018-06-09T00:02:52.438Z,18.70
2018-06-09T00:05:24.751Z,18.70
2018-06-09T00:07:57.187Z,18.70
2018-06-09T00:10:29.557Z,18.60
2018-06-09T00:13:01.949Z,18.60
2018-06-09T00:15:35.008Z,18.50
2018-06-09T00:18:07.369Z,18.50
2018-06-09T00:20:39.762Z,18.50
2018-06-09T00:23:12.068Z,18.50
2018-06-09T00:25:44.468Z,18.60
2018-06-09T00:28:16.901Z,18.60
2018-06-09T00:30:50.020Z,18.60
2018-06-09T00:33:22.503Z,18.60
2018-06-09T00:35:54.775Z,18.60
2018-06-09T00:38:27.126Z,18.60
2018-06-09T00:40:59.488Z,18.60
2018-06-09T00:43:31.851Z,18.50
2018-06-09T00:46:04.993Z,18.60
2018-06-09T00:48:37.332Z,18.60
2018-06-09T00:51:10.462Z,18.50
2018-06-09T00:53:42.761Z,18.50
2018-06-09T00:56:27.634Z,18.50
2018-06-09T00:59:00.026Z,18.50
2018-06-09T01:01:32.335Z,18.60
2018-06-09T01:04:04.635Z,18.60
2018-06-09T01:06:37.135Z,18.60
2018-06-09T01:09:10.273Z,18.60
2018-06-09T01:11:42.640Z,18.50
2018-06-09T01:14:15.118Z,18.60
2018-06-09T01:16:47.413Z,18.60
2018-06-09T01:19:19.775Z,18.50
2018-06-09T01:21:52.135Z,18.50
2018-06-09T01:24:24.656Z,18.50
2018-06-09T01:26:57.788Z,18.60
2018-06-09T01:29:30.194Z,18.60
2018-06-09T01:32:02.514Z,18.50
2018-06-09T01:34:34.841Z,18.50
2018-06-09T01:37:07.271Z,18.50
2018-06-09T01:39:39.608Z,18.40
2018-06-09T01:42:11.917Z,18.40
2018-06-09T01:44:44.197Z,18.30
2018-06-09T01:47:16.563Z,18.40
2018-06-09T01:49:48.891Z,18.40
2018-06-09T01:52:21.267Z,18.40
2018-06-09T01:54:53.585Z,18.40
2018-06-09T01:57:25.853Z,18.40
2018-06-09T01:59:58.185Z,18.40
2018-06-09T02:02:30.419Z,18.40
2018-06-09T02:05:02.711Z,18.40
2018-06-09T02:07:35.045Z,18.40
2018-06-09T02:10:07.585Z,18.40
2018-06-09T02:12:40.615Z,18.30
2018-06-09T02:15:13.029Z,18.30
2018-06-09T02:17:46.097Z,18.30
2018-06-09T02:20:18.499Z,18.30
2018-06-09T02:22:50.739Z,18.30
2018-06-09T02:25:23.182Z,18.20
2018-06-09T02:27:55.473Z,18.20
2018-06-09T02:30:27.856Z,18.20
2018-06-09T02:33:00.229Z,18.20
2018-06-09T02:35:32.535Z,18.10
2018-06-09T02:38:05.565Z,18.00
2018-06-09T02:40:37.889Z,18.00
2018-06-09T02:43:10.931Z,17.90
2018-06-09T02:45:43.269Z,17.90
2018-06-09T02:48:16.399Z,17.90
2018-06-09T02:50:48.723Z,17.90
2018-06-09T02:53:21.772Z,17.80
2018-06-09T02:55:54.125Z,17.80
2018-06-09T02:58:26.413Z,17.80
2018-06-09T03:00:59.570Z,17.80
2018-06-09T03:03:31.870Z,17.70
2018-06-09T03:06:04.252Z,17.80
2018-06-09T03:08:36.582Z,17.80
2018-06-09T03:11:08.947Z,17.90
2018-06-09T03:13:41.298Z,17.90
2018-06-09T03:16:14.410Z,17.90
2018-06-09T03:18:46.703Z,17.90
2018-06-09T03:21:19.129Z,18.00
2018-06-09T03:23:52.150Z,18.10
2018-06-09T03:26:24.597Z,18.00
2018-06-09T03:28:57.740Z,18.10
2018-06-09T03:31:30.136Z,18.00
2018-06-09T03:34:02.471Z,18.00
2018-06-09T03:36:34.813Z,18.10
2018-06-09T03:39:07.078Z,18.20
2018-06-09T03:41:39.457Z,18.20
2018-06-09T03:44:11.874Z,18.20
2018-06-09T03:46:44.280Z,18.30
2018-06-09T03:49:16.563Z,18.30
2018-06-09T03:51:48.851Z,18.30
2018-06-09T03:54:21.878Z,18.30
2018-06-09T03:56:54.236Z,18.40
2018-06-09T03:59:26.573Z,18.30
2018-06-09T04:01:59.645Z,18.40
2018-06-09T04:04:31.995Z,18.40
2018-06-09T04:07:04.443Z,18.40
2018-06-09T04:09:36.841Z,18.40
2018-06-09T04:12:09.192Z,18.50
2018-06-09T04:14:41.559Z,18.50
2018-06-09T04:17:13.867Z,18.50
2018-06-09T04:19:46.167Z,18.50
2018-06-09T04:22:19.369Z,18.60
2018-06-09T04:24:51.707Z,18.50
2018-06-09T04:27:23.978Z,18.50
2018-06-09T04:29:56.273Z,18.50
2018-06-09T04:32:29.496Z,18.50
2018-06-09T04:35:01.838Z,18.50
2018-06-09T04:37:34.813Z,18.40
2018-06-09T04:40:07.921Z,18.40
2018-06-09T04:42:40.991Z,18.40
2018-06-09T04:45:13.231Z,18.30
2018-06-09T04:47:45.563Z,18.40
2018-06-09T04:50:17.879Z,18.40
2018-06-09T04:52:50.184Z,18.50
2018-06-09T04:55:22.611Z,18.50
2018-06-09T04:57:54.929Z,18.60
2018-06-09T05:00:27.208Z,18.70
2018-06-09T05:03:00.276Z,18.90
2018-06-09T05:05:33.368Z,18.80
2018-06-09T05:08:05.719Z,18.80
2018-06-09T05:10:37.961Z,19.00
2018-06-09T05:13:10.341Z,19.20
2018-06-09T05:15:42.727Z,19.30
2018-06-09T05:18:15.073Z,19.30
2018-06-09T05:20:47.453Z,19.40
2018-06-09T05:23:19.837Z,19.60
2018-06-09T05:25:52.118Z,19.60
2018-06-09T05:28:24.638Z,19.60
2018-06-09T05:30:57.709Z,19.90
2018-06-09T05:33:30.058Z,19.90
2018-06-09T05:36:02.310Z,19.80
2018-06-09T05:38:34.866Z,19.80
2018-06-09T05:41:07.135Z,19.70
2018-06-09T05:43:39.424Z,19.80
2018-06-09T05:46:11.740Z,19.70
2018-06-09T05:48:44.122Z,19.80
2018-06-09T05:51:17.308Z,19.90
2018-06-09T05:53:50.533Z,20.00
2018-06-09T05:56:23.700Z,20.10
2018-06-09T05:58:56.104Z,20.10
2018-06-09T06:01:28.422Z,20.30
2018-06-09T06:04:00.811Z,20.40
2018-06-09T06:06:33.161Z,20.40
2018-06-09T06:09:05.542Z,20.60
2018-06-09T06:11:37.906Z,20.60
2018-06-09T06:14:10.179Z,20.60
2018-06-09T06:16:42.463Z,20.50
2018-06-09T06:19:14.819Z,20.70
2018-06-09T06:21:47.129Z,20.70
2018-06-09T06:24:20.206Z,20.60
2018-06-09T06:26:52.435Z,20.60
2018-06-09T06:29:24.708Z,20.60
2018-06-09T06:31:57.049Z,20.70
2018-06-09T06:34:29.395Z,21.10
2018-06-09T06:37:01.767Z,21.20
2018-06-09T06:39:34.868Z,21.70
2018-06-09T06:42:07.099Z,21.70
2018-06-09T06:44:39.454Z,21.80
2018-06-09T06:47:12.002Z,22.20
2018-06-09T06:49:44.441Z,22.60
2018-06-09T06:52:16.830Z,23.20
2018-06-09T06:54:49.999Z,24.10
2018-06-09T06:57:22.281Z,24.10
2018-06-09T06:59:55.352Z,24.80
2018-06-09T07:02:27.756Z,24.80
2018-06-09T07:05:00.758Z,24.30
2018-06-09T07:07:33.908Z,23.80
2018-06-09T07:10:06.191Z,23.70
2018-06-09T07:12:38.645Z,23.10
2018-06-09T07:15:11.039Z,22.70
2018-06-09T07:17:43.336Z,22.40
2018-06-09T07:20:16.415Z,21.70
2018-06-09T07:22:49.593Z,21.60
2018-06-09T07:25:21.897Z,21.60
2018-06-09T07:27:54.234Z,21.70
2018-06-09T07:30:26.527Z,21.90
2018-06-09T07:32:59.594Z,22.20
2018-06-09T07:35:31.898Z,22.20
2018-06-09T07:38:04.919Z,22.50
2018-06-09T07:40:38.117Z,22.50
2018-06-09T07:43:10.405Z,23.10
2018-06-09T07:45:42.708Z,23.70
2018-06-09T07:48:15.162Z,24.20
2018-06-09T07:50:47.554Z,24.50
2018-06-09T07:53:20.725Z,24.70
2018-06-09T07:55:53.012Z,24.70
2018-06-09T07:58:26.110Z,24.90
2018-06-09T08:00:59.277Z,25.20
2018-06-09T08:03:31.534Z,25.20
2018-06-09T08:06:03.918Z,25.80
2018-06-09T08:08:36.153Z,26.60
2018-06-09T08:11:08.552Z,26.10
2018-06-09T08:13:40.937Z,25.40
2018-06-09T08:16:13.253Z,26.40
2018-06-09T08:18:45.523Z,27.40
2018-06-09T08:21:17.850Z,27.60
2018-06-09T08:23:50.157Z,27.70
2018-06-09T08:26:22.565Z,27.50
2018-06-09T08:28:54.970Z,27.30
2018-06-09T08:31:27.354Z,27.30
2018-06-09T08:34:00.459Z,28.70
2018-06-09T08:36:32.789Z,28.70
2018-06-09T08:39:05.069Z,28.80
2018-06-09T08:41:37.379Z,29.60
2018-06-09T08:44:09.654Z,29.20
2018-06-09T08:46:42.099Z,28.90
2018-06-09T08:49:14.456Z,29.10
2018-06-09T08:51:46.727Z,28.90
2018-06-09T08:54:18.998Z,29.00
2018-06-09T08:56:51.356Z,28.90
2018-06-09T08:59:23.680Z,28.40
2018-06-09T09:01:56.042Z,27.60
2018-06-09T09:04:29.107Z,26.40
2018-06-09T09:07:02.235Z,26.20
2018-06-09T09:09:34.547Z,26.20
2018-06-09T09:12:06.965Z,25.80
2018-06-09T09:14:40.051Z,25.40
2018-06-09T09:17:12.489Z,25.40
2018-06-09T09:19:44.847Z,25.10
2018-06-09T09:22:17.949Z,24.60
2018-06-09T09:24:50.229Z,24.60
2018-06-09T09:27:22.639Z,24.50
2018-06-09T09:29:55.037Z,24.60
2018-06-09T09:32:27.464Z,24.40
2018-06-09T09:34:59.842Z,24.40
2018-06-09T09:37:32.196Z,24.40
2018-06-09T09:40:04.534Z,24.80
2018-06-09T09:42:36.942Z,25.00
2018-06-09T09:45:09.312Z,24.60
2018-06-09T09:47:41.599Z,24.60
2018-06-09T09:50:13.847Z,24.70
2018-06-09T09:52:46.227Z,24.70
2018-06-09T09:55:18.603Z,25.00
2018-06-09T09:57:51.014Z,25.10
2018-06-09T10:00:23.437Z,24.90
2018-06-09T10:02:55.907Z,25.10
2018-06-09T10:05:28.429Z,25.50
2018-06-09T10:08:01.625Z,25.60
2018-06-09T10:10:34.781Z,25.70
2018-06-09T10:13:07.168Z,25.70
2018-06-09T10:15:39.498Z,25.70
2018-06-09T10:18:11.842Z,25.60
2018-06-09T10:20:44.934Z,25.40
2018-06-09T10:23:17.275Z,25.40
2018-06-09T10:25:49.659Z,25.40
2018-06-09T10:28:22.910Z,25.20
2018-06-09T10:30:55.362Z,25.20
2018-06-09T10:33:27.804Z,25.00
2018-06-09T10:36:00.850Z,25.30
2018-06-09T10:38:33.231Z,25.30
2018-06-09T10:41:05.548Z,25.70
2018-06-09T10:43:38.631Z,26.60
2018-06-09T10:46:11.651Z,27.10
2018-06-09T10:48:44.019Z,27.10
2018-06-09T10:51:16.442Z,27.00
2018-06-09T10:53:48.865Z,27.00
2018-06-09T10:56:21.164Z,26.50
2018-06-09T10:58:53.467Z,27.00
2018-06-09T11:01:25.866Z,27.30
2018-06-09T11:03:59.046Z,27.30
2018-06-09T11:06:32.095Z,26.90
2018-06-09T11:09:04.532Z,26.90
2018-06-09T11:11:36.957Z,27.00
2018-06-09T11:14:09.338Z,26.80
2018-06-09T11:16:41.801Z,26.70
2018-06-09T11:19:14.182Z,26.30
2018-06-09T11:21:46.490Z,26.40
2018-06-09T11:24:18.846Z,26.70
2018-06-09T11:26:51.840Z,27.10
2018-06-09T11:29:25.012Z,26.90
2018-06-09T11:31:57.367Z,26.90
2018-06-09T11:34:29.757Z,27.00
2018-06-09T11:37:02.201Z,27.10
2018-06-09T11:39:34.557Z,27.30
2018-06-09T11:42:06.849Z,27.40
2018-06-09T11:44:39.351Z,27.20
2018-06-09T11:47:12.579Z,26.80
2018-06-09T11:49:44.894Z,26.80
2018-06-09T11:52:17.298Z,26.70
2018-06-09T11:54:49.739Z,26.80
2018-06-09T11:57:22.129Z,26.30
2018-06-09T11:59:54.523Z,26.50
2018-06-09T12:02:26.854Z,26.60
2018-06-09T12:04:59.261Z,26.40
2018-06-09T12:07:31.525Z,26.60
2018-06-09T12:10:03.909Z,26.60
2018-06-09T12:12:36.209Z,27.00
2018-06-09T12:15:08.663Z,26.70
2018-06-09T12:17:41.781Z,27.00
2018-06-09T12:20:14.105Z,26.90
2018-06-09T12:22:46.462Z,27.20
2018-06-09T12:25:18.752Z,26.80
2018-06-09T12:27:51.219Z,26.40
2018-06-09T12:30:23.558Z,26.60
2018-06-09T12:32:55.943Z,26.40
2018-06-09T12:35:28.287Z,26.70
2018-06-09T12:38:00.706Z,26.60
2018-06-09T12:40:33.104Z,26.50
2018-06-09T12:43:06.135Z,26.50
2018-06-09T12:45:38.477Z,26.50
2018-06-09T12:48:10.823Z,26.30
2018-06-09T12:50:43.236Z,26.40
2018-06-09T12:53:16.355Z,26.10
2018-06-09T12:55:48.681Z,26.10
2018-06-09T12:58:21.111Z,26.30
2018-06-09T13:00:53.451Z,26.50
2018-06-09T13:03:25.767Z,26.50
2018-06-09T13:05:58.308Z,26.80
2018-06-09T13:08:30.695Z,26.80
2018-06-09T13:11:03.237Z,26.90
2018-06-09T13:13:35.680Z,26.80
2018-06-09T13:16:08.920Z,26.80
2018-06-09T13:18:41.318Z,26.80
2018-06-09T13:21:13.706Z,27.10
2018-06-09T13:23:46.192Z,26.90
2018-06-09T13:26:18.568Z,26.80
2018-06-09T13:28:50.836Z,26.80
2018-06-09T13:31:23.208Z,27.20
2018-06-09T13:33:55.518Z,27.10
2018-06-09T13:36:27.910Z,27.30
2018-06-09T13:39:00.232Z,27.20
2018-06-09T13:41:33.366Z,27.40
2018-06-09T13:44:05.697Z,27.40
2018-06-09T13:46:38.034Z,26.80
2018-06-09T13:49:10.464Z,26.50
2018-06-09T13:51:42.912Z,26.60
2018-06-09T13:54:15.291Z,26.40
2018-06-09T13:56:47.596Z,26.40
2018-06-09T13:59:19.990Z,26.30
2018-06-09T14:01:52.423Z,26.40
2018-06-09T14:04:25.570Z,26.40
2018-06-09T14:06:57.968Z,26.40
2018-06-09T14:09:30.311Z,26.50
2018-06-09T14:12:02.668Z,26.50
2018-06-09T14:14:34.998Z,26.80
2018-06-09T14:17:08.102Z,27.30
2018-06-09T14:19:40.436Z,27.30
2018-06-09T14:22:12.832Z,27.10
2018-06-09T14:24:45.265Z,26.80
2018-06-09T14:27:17.603Z,26.30
2018-06-09T14:29:49.975Z,26.10
2018-06-09T14:32:22.420Z,26.00
2018-06-09T14:34:54.836Z,26.00
2018-06-09T14:37:27.474Z,26.00
2018-06-09T14:39:59.809Z,26.00
2018-06-09T14:42:32.525Z,26.00
2018-06-09T14:45:04.905Z,26.00
2018-06-09T14:47:37.975Z,26.10
2018-06-09T14:50:10.271Z,26.00
2018-06-09T14:52:43.480Z,25.90
2018-06-09T14:55:15.817Z,25.90
2018-06-09T14:57:48.906Z,26.20
2018-06-09T15:00:21.959Z,26.10
2018-06-09T15:02:54.261Z,26.10
2018-06-09T15:05:26.582Z,26.20
2018-06-09T15:07:58.929Z,26.30
2018-06-09T15:10:31.969Z,26.40
2018-06-09T15:13:04.382Z,26.40
2018-06-09T15:15:37.450Z,26.30
2018-06-09T15:18:09.825Z,26.20
2018-06-09T15:20:42.167Z,26.20
2018-06-09T15:23:14.595Z,26.00
2018-06-09T15:25:46.926Z,25.80
2018-06-09T15:28:19.366Z,25.70
2018-06-09T15:30:51.689Z,25.40
2018-06-09T15:33:24.053Z,25.40
2018-06-09T15:35:56.403Z,25.40
2018-06-09T15:38:28.727Z,25.40
2018-06-09T15:41:01.787Z,25.40
2018-06-09T15:43:34.171Z,25.40
2018-06-09T15:46:06.493Z,25.30
2018-06-09T15:48:38.826Z,25.30
2018-06-09T15:51:11.988Z,25.20
2018-06-09T15:53:44.281Z,25.20
2018-06-09T15:56:17.332Z,25.40
2018-06-09T15:58:49.534Z,25.40
2018-06-09T16:01:21.868Z,25.60
2018-06-09T16:03:54.192Z,25.60
2018-06-09T16:06:26.438Z,25.80
2018-06-09T16:08:58.815Z,25.80
2018-06-09T16:11:31.164Z,25.60
2018-06-09T16:14:03.580Z,25.40
2018-06-09T16:16:36.797Z,25.40
2018-06-09T16:19:09.152Z,25.40
2018-06-09T16:21:42.195Z,25.40
2018-06-09T16:24:14.492Z,25.40
2018-06-09T16:26:46.717Z,25.50
2018-06-09T16:29:19.059Z,25.60
2018-06-09T16:31:52.211Z,25.40
2018-06-09T16:34:24.582Z,25.40
2018-06-09T16:36:56.954Z,25.40
2018-06-09T16:39:29.352Z,25.40
2018-06-09T16:42:02.445Z,25.30
2018-06-09T16:44:35.648Z,25.10
2018-06-09T16:47:08.685Z,24.90
2018-06-09T16:49:41.111Z,24.90
2018-06-09T16:52:14.256Z,24.80
2018-06-09T16:54:46.646Z,24.80
2018-06-09T16:57:18.898Z,24.80
2018-06-09T16:59:51.265Z,24.70
2018-06-09T17:02:23.696Z,24.60
2018-06-09T17:04:56.883Z,24.40
2018-06-09T17:07:29.877Z,24.40
2018-06-09T17:10:02.397Z,24.40
2018-06-09T17:12:34.805Z,24.30
2018-06-09T17:15:07.217Z,24.20
2018-06-09T17:17:39.534Z,24.10
2018-06-09T17:20:11.905Z,24.00
2018-06-09T17:22:44.321Z,23.90
2018-06-09T17:25:16.858Z,23.90
2018-06-09T17:27:49.423Z,23.80
2018-06-09T17:30:22.785Z,23.80
2018-06-09T17:32:55.196Z,23.80
2018-06-09T17:35:27.472Z,23.80
2018-06-09T17:37:59.782Z,23.70
2018-06-09T17:40:32.163Z,23.70
2018-06-09T17:43:04.493Z,23.70
2018-06-09T17:45:36.837Z,23.70
2018-06-09T17:48:09.116Z,23.80
2018-06-09T17:50:41.555Z,23.60
2018-06-09T17:53:13.944Z,23.50
2018-06-09T17:55:46.239Z,23.40
2018-06-09T17:58:18.623Z,23.40
2018-06-09T18:00:50.924Z,23.30
2018-06-09T18:03:23.261Z,23.30
2018-06-09T18:05:55.568Z,23.20
2018-06-09T18:08:28.744Z,23.00
2018-06-09T18:11:00.998Z,23.00
2018-06-09T18:13:33.376Z,22.90
2018-06-09T18:16:05.689Z,22.90
2018-06-09T18:18:38.122Z,22.90
2018-06-09T18:21:10.527Z,22.70
2018-06-09T18:23:42.833Z,22.70
2018-06-09T18:26:15.198Z,22.60
2018-06-09T18:28:47.566Z,22.70
2018-06-09T18:31:19.863Z,22.70
2018-06-09T18:33:52.350Z,22.60
2018-06-09T18:36:25.492Z,22.50
2018-06-09T18:38:57.800Z,22.50
2018-06-09T18:41:30.230Z,22.40
2018-06-09T18:44:03.246Z,22.30
2018-06-09T18:46:35.581Z,22.30
2018-06-09T18:49:07.966Z,22.30
2018-06-09T18:51:40.305Z,22.10
2018-06-09T18:54:19.416Z,22.00
2018-06-09T18:56:51.820Z,21.90
2018-06-09T18:59:24.121Z,21.90
2018-06-09T19:01:56.512Z,21.80
2018-06-09T19:04:28.779Z,21.80
2018-06-09T19:07:01.154Z,21.70
2018-06-09T19:09:33.516Z,21.60
2018-06-09T19:12:06.052Z,21.50
2018-06-09T19:14:38.434Z,21.30
2018-06-09T19:17:10.781Z,21.30
2018-06-09T19:19:43.171Z,21.20
2018-06-09T19:22:15.518Z,21.00
2018-06-09T19:24:47.785Z,20.90
2018-06-09T19:27:20.169Z,20.80
2018-06-09T19:29:52.473Z,20.70
2018-06-09T19:32:24.832Z,20.60
2018-06-09T19:34:57.144Z,20.60
2018-06-09T19:37:29.511Z,20.60
2018-06-09T19:40:01.746Z,20.40
2018-06-09T19:42:34.016Z,20.50
2018-06-09T19:45:06.334Z,20.30
2018-06-09T19:47:38.690Z,20.20
2018-06-09T19:50:11.027Z,20.10
2018-06-09T19:52:43.322Z,20.10
2018-06-09T19:55:16.498Z,20.10
2018-06-09T19:57:49.704Z,20.00
2018-06-09T20:00:22.684Z,20.00
2018-06-09T20:02:54.999Z,20.00
2018-06-09T20:05:27.331Z,19.80
2018-06-09T20:08:00.404Z,19.80
2018-06-09T20:10:33.597Z,19.80
2018-06-09T20:13:06.801Z,19.70
2018-06-09T20:15:39.062Z,19.70
2018-06-09T20:18:11.404Z,19.70
2018-06-09T20:20:43.633Z,19.70
2018-06-09T20:23:15.992Z,19.70
2018-06-09T20:25:49.133Z,19.60
2018-06-09T20:28:21.455Z,19.60
2018-06-09T20:30:53.831Z,19.60
2018-06-09T20:33:26.157Z,19.60
2018-06-09T20:35:58.476Z,19.70
2018-06-09T20:38:30.776Z,19.50
2018-06-09T20:41:03.175Z,19.50
2018-06-09T20:43:35.581Z,19.40
2018-06-09T20:46:08.679Z,19.30
2018-06-09T20:48:41.053Z,19.30
2018-06-09T20:51:14.244Z,19.20
2018-06-09T20:53:47.460Z,19.10
2018-06-09T20:56:19.881Z,19.10
2018-06-09T20:58:52.238Z,19.00
2018-06-09T21:01:24.657Z,18.90
2018-06-09T21:03:57.960Z,18.80
2018-06-09T21:06:30.399Z,18.80
2018-06-09T21:09:02.802Z,18.80
2018-06-09T21:11:35.169Z,18.70
2018-06-09T21:14:08.334Z,18.80
2018-06-09T21:16:40.601Z,18.70
2018-06-09T21:19:12.934Z,18.70
2018-06-09T21:21:45.311Z,18.70
2018-06-09T21:24:17.790Z,18.70
2018-06-09T21:26:50.183Z,18.70
2018-06-09T21:29:22.504Z,18.60
2018-06-09T21:31:55.578Z,18.50
2018-06-09T21:37:40.405Z,18.40
2018-06-09T21:40:12.738Z,18.40
2018-06-09T21:42:45.021Z,18.40
2018-06-09T21:45:17.311Z,18.40
2018-06-09T21:47:50.434Z,18.40
2018-06-09T21:50:22.871Z,18.40
2018-06-09T21:52:55.203Z,18.40
2018-06-09T21:55:27.539Z,18.30
2018-06-09T21:57:59.912Z,18.20
2018-06-09T22:00:32.208Z,18.20
2018-06-09T22:03:04.531Z,18.20
2018-06-09T22:05:36.982Z,18.10
2018-06-09T22:08:10.128Z,18.10
2018-06-09T22:10:42.451Z,18.10
2018-06-09T22:13:14.740Z,18.10
2018-06-09T22:15:46.967Z,18.10
2018-06-09T22:18:19.266Z,18.20
2018-06-09T22:20:52.337Z,18.10
2018-06-09T22:23:24.594Z,18.00
2018-06-09T22:25:56.979Z,18.10
2018-06-09T22:28:29.375Z,18.00
2018-06-09T22:31:02.413Z,18.00
2018-06-09T22:33:34.826Z,18.00
2018-06-09T22:36:07.162Z,18.10
2018-06-09T22:38:39.443Z,18.00
2018-06-09T22:41:11.839Z,18.00
2018-06-09T22:43:44.293Z,18.10
2018-06-09T22:46:17.464Z,18.10
2018-06-09T22:48:49.753Z,18.00
2018-06-09T22:51:22.157Z,18.00
2018-06-09T22:53:55.268Z,18.00
2018-06-09T22:56:27.697Z,17.90
2018-06-09T22:58:59.958Z,17.90
2018-06-09T23:01:32.311Z,17.90
2018-06-09T23:04:04.667Z,17.90
2018-06-09T23:06:36.969Z,17.90
2018-06-09T23:09:09.310Z,17.90
2018-06-09T23:11:41.561Z,17.90
2018-06-09T23:14:14.768Z,18.00
2018-06-09T23:16:47.256Z,18.00
2018-06-09T23:19:19.644Z,18.00
2018-06-09T23:21:52.068Z,18.10
2018-06-09T23:24:25.112Z,18.10
2018-06-09T23:26:57.422Z,18.10
2018-06-09T23:29:29.802Z,18.20
2018-06-09T23:32:02.197Z,18.20
2018-06-09T23:34:34.642Z,18.20
2018-06-09T23:37:07.833Z,18.20
2018-06-09T23:39:40.167Z,18.20
2018-06-09T23:42:12.565Z,18.10
2018-06-09T23:44:44.797Z,18.10
2018-06-09T23:47:17.125Z,18.10
2018-06-09T23:49:50.205Z,18.10
2018-06-09T23:52:22.464Z,18.00
2018-06-09T23:54:54.889Z,18.10
2018-06-09T23:57:27.340Z,18.10
